カンクン の空港の天気 - METARとTAF

カンクン国際空港 ( MMUN / CUN ) - メキシコ キンタナ・ロー州カンクン
飛行場実況気象(Metar)
観測時間09/23 06:42 CDT (09/23 11:42 UTC)
風向・風速北北西 2m/s
視程10km以上
天気現象
全天の4割程度の雲 雲底高度 460m
全天の4割程度の雲 雲底高度 7620m
気温24℃
湿度100%
気圧1010.2hPa
METARMMUN 231142Z 33003KT 7SM SCT015TCU SCT250 24/24 A2983 RMK SLP102 52006 964 8/208 HZY
過去の天気等 Google飛行場航空写真 Wunderground天気予報

過去48時間のMETAR

飛行場予報(TAF)
発表時間: 9/23 05:45 CDT (9/23 10:45 UTC)
予報対象時間: 23日7時 CDT ~ 24日13時 CDT
風向・風速北北西 3m/s
視程10km以上
全天の4割程度の雲 雲底高度 460m
全天の4割程度の雲 雲底高度 7,620m
23日13時 CDT から
風向・風速東北東 5m/s
視程10km以上
全天の8割程度の積乱雲 雲底高度 460m
全天の8割程度の雲 雲底高度 7,620m
24日1時 CDT から
風向・風速東北東 3m/s
視程10km以上
全天の4割程度の雲 雲底高度 460m
全天の4割程度の雲 雲底高度 7,620m
24日12時 CDT から
風向・風速東南東 6m/s
視程10km以上
全天の8割程度の雲 雲底高度 460m
全天の8割程度の雲 雲底高度 7,620m
TAF MMUN 231045Z 2312/2418 34005KT P6SM SCT015 SCT250 TX32/2319Z TN23/2312Z
FM231800 07010KT P6SM BKN015CB BKN250
FM240600 07005KT P6SM SCT015 SCT250
FM241700 12012KT P6SM BKN015 BKN250